Time;durP1;ratioP1;P1;durP2;ratioP2;P2;SDS_P1;SDS_P2;PMS_P1;PMS_P2;Temp;Humidity;BMP_temperature;BMP_pressure;BME280_temperature;BME280_humidity;BME280_pressure;Samples;Min_cycle;Max_cycle;Signal;HPM_P1;HPM_P2
2022/10/08 00:01:01;;;;;;;18.67;16.50;;;;;;;14.54;100.00;100147.34;5043976;28;20025;-75
2022/10/08 00:03:29;;;;;;;18.27;15.68;;;;;;;14.59;100.00;100153.03;5044690;28;20040;-76
2022/10/08 00:06:07;;;;;;;20.02;17.15;;;;;;;14.49;100.00;100144.31;5045771;28;20436;-76
2022/10/08 00:08:35;;;;;;;19.65;17.55;;;;;;;14.50;100.00;100145.97;5044937;28;20048;-76
2022/10/08 00:11:05;;;;;;;17.67;15.88;;;;;;;14.48;100.00;100138.16;5045781;28;20033;-76
2022/10/08 00:13:39;;;;;;;23.85;18.58;;;;;;;14.44;100.00;100135.94;5046281;28;20367;-76
2022/10/08 00:16:08;;;;;;;21.00;17.60;;;;;;;14.43;100.00;100129.81;5044446;28;20068;-76
2022/10/08 00:18:34;;;;;;;21.00;17.15;;;;;;;14.49;100.00;100134.50;5044219;28;20038;-76
2022/10/08 00:21:13;;;;;;;21.15;18.13;;;;;;;14.52;100.00;100138.69;5043431;28;20508;-76
2022/10/08 00:23:39;;;;;;;20.05;17.10;;;;;;;14.40;100.00;100132.78;5044411;28;20029;-76
2022/10/08 00:26:06;;;;;;;22.17;16.60;;;;;;;14.42;100.00;100133.47;5039196;28;20060;-76
2022/10/08 00:28:34;;;;;;;21.83;18.05;;;;;;;14.27;100.00;100125.16;5043610;28;20033;-76
2022/10/08 00:31:11;;;;;;;20.63;16.88;;;;;;;14.22;100.00;100127.44;5046251;28;20025;-76
2022/10/08 00:33:37;;;;;;;18.77;16.88;;;;;;;14.23;100.00;100123.81;5042243;28;20037;-76
2022/10/08 00:36:08;;;;;;;18.23;16.42;;;;;;;14.14;100.00;100124.72;5044964;28;20440;-76
2022/10/08 00:38:34;;;;;;;20.98;16.88;;;;;;;14.10;100.00;100128.66;5042102;28;20041;-76
2022/10/08 00:40:59;;;;;;;20.75;16.33;;;;;;;14.09;100.00;100131.47;5045887;28;20349;-76
2022/10/08 00:43:50;;;;;;;19.38;16.52;;;;;;;14.00;100.00;100137.69;5043876;28;20124;-76
2022/10/08 00:46:29;;;;;;;19.63;16.73;;;;;;;13.89;100.00;100128.13;5045570;28;20511;-75
2022/10/08 00:49:15;;;;;;;19.60;17.30;;;;;;;13.96;100.00;100131.81;5044044;28;20029;-76
2022/10/08 00:51:44;;;;;;;20.30;18.20;;;;;;;14.05;100.00;100124.78;5043399;28;20176;-76
2022/10/08 00:54:12;;;;;;;21.88;18.05;;;;;;;14.07;100.00;100128.97;5044202;28;20032;-75
2022/10/08 00:56:38;;;;;;;21.52;17.38;;;;;;;14.08;100.00;100120.00;5045769;28;20038;-76
2022/10/08 00:59:06;;;;;;;22.27;18.42;;;;;;;14.14;100.00;100119.41;5043312;28;20033;-78
2022/10/08 01:01:33;;;;;;;22.23;17.27;;;;;;;14.07;100.00;100107.75;5043744;28;20678;-76
2022/10/08 01:04:04;;;;;;;20.67;17.73;;;;;;;14.12;100.00;100110.78;5041928;28;20485;-76
2022/10/08 01:06:54;;;;;;;24.08;17.70;;;;;;;14.18;100.00;100106.69;5043447;28;20124;-75
2022/10/08 01:09:30;;;;;;;20.17;18.00;;;;;;;14.23;100.00;100118.50;5042459;28;20038;-76
2022/10/08 01:12:30;;;;;;;20.10;17.70;;;;;;;14.10;100.00;100112.75;5044671;28;20037;-75
2022/10/08 01:15:00;;;;;;;20.70;17.77;;;;;;;14.22;100.00;100111.53;5039465;28;20475;-76
2022/10/08 01:17:40;;;;;;;23.05;18.20;;;;;;;14.22;100.00;100119.50;5043022;28;20041;-75
2022/10/08 01:20:06;;;;;;;20.20;18.15;;;;;;;14.14;100.00;100108.78;5043723;28;20029;-75
2022/10/08 01:22:51;;;;;;;24.10;18.48;;;;;;;13.96;100.00;100105.28;5045584;28;20102;-76
2022/10/08 01:25:32;;;;;;;21.83;18.48;;;;;;;13.78;100.00;100099.16;5068143;28;20373;-76
2022/10/08 01:28:01;;;;;;;19.48;17.25;;;;;;;13.76;100.00;100098.47;5045204;28;20025;-75
2022/10/08 01:30:32;;;;;;;19.83;17.75;;;;;;;13.75;100.00;100099.44;5042901;28;20111;-75
2022/10/08 01:33:11;;;;;;;;;;;;;;;13.74;100.00;100089.81;5044780;28;20025;-75
2022/10/08 01:35:43;;;;;;;19.10;16.40;;;;;;;13.79;100.00;100092.84;5043148;28;20576;-75
2022/10/08 01:38:18;;;;;;;20.92;17.10;;;;;;;13.70;100.00;100093.75;5042837;28;20505;-75
2022/10/08 01:40:46;;;;;;;19.40;17.40;;;;;;;13.69;100.00;100084.13;5042661;28;20391;-75
2022/10/08 01:43:16;;;;;;;20.27;18.05;;;;;;;13.64;100.00;100075.78;5041997;28;20477;-75
2022/10/08 01:45:49;;;;;;;24.15;18.40;;;;;;;13.60;100.00;100079.75;5043344;28;20428;-75
2022/10/08 01:48:21;;;;;;;19.50;17.50;;;;;;;13.51;100.00;100079.63;5045532;28;20067;-76
2022/10/08 01:50:58;;;;;;;22.27;18.95;;;;;;;13.46;100.00;100081.06;5041728;28;20036;-76
2022/10/08 01:53:32;;;;;;;21.02;18.83;;;;;;;13.42;100.00;100091.16;5045133;28;20491;-75
2022/10/08 01:56:01;;;;;;;23.38;18.67;;;;;;;13.29;100.00;100085.34;5045973;28;20049;-76
2022/10/08 01:58:48;;;;;;;20.67;18.50;;;;;;;13.33;100.00;100086.72;5042734;28;20032;-75
2022/10/08 02:01:23;;;;;;;22.23;18.75;;;;;;;13.37;100.00;100076.66;5042048;28;20048;-75
2022/10/08 02:06:38;;;;;;;25.48;21.73;;;;;;;13.21;100.00;100082.59;5043557;28;20037;-75
2022/10/08 02:09:05;;;;;;;24.30;20.95;;;;;;;13.19;100.00;100079.28;5043818;28;20036;-75
2022/10/08 02:11:30;;;;;;;26.70;21.95;;;;;;;13.28;100.00;100073.06;5046409;28;20116;-75
2022/10/08 02:13:56;;;;;;;29.70;23.23;;;;;;;13.36;100.00;100075.84;5052951;28;20167;-75
2022/10/08 02:16:28;;;;;;;30.52;22.55;;;;;;;13.42;100.00;100080.53;5044652;28;20044;-75
2022/10/08 02:19:08;;;;;;;26.98;21.35;;;;;;;13.37;100.00;100076.66;5044756;28;20033;-75
2022/10/08 02:21:38;;;;;;;27.17;21.90;;;;;;;13.33;100.00;100081.41;5044489;28;20033;-75
2022/10/08 02:24:21;;;;;;;31.20;20.83;;;;;;;13.39;100.00;100074.69;5048949;28;20037;-75
2022/10/08 02:26:52;;;;;;;26.15;20.95;;;;;;;13.46;100.00;100081.91;5045543;28;20314;-75
2022/10/08 02:29:32;;;;;;;24.67;20.15;;;;;;;13.50;100.00;100072.66;5048261;28;20065;-75
2022/10/08 02:32:19;;;;;;;22.92;19.60;;;;;;;13.56;100.00;100075.69;5046770;28;20029;-74
2022/10/08 02:34:59;;;;;;;23.17;19.50;;;;;;;13.58;100.00;100068.44;5045523;28;20056;-75
2022/10/08 02:37:37;;;;;;;21.70;19.17;;;;;;;13.55;100.00;100068.75;5043756;28;20092;-75
2022/10/08 02:40:09;;;;;;;24.98;20.65;;;;;;;13.40;100.00;100071.06;5047137;28;20112;-75
2022/10/08 02:42:38;;;;;;;23.25;19.65;;;;;;;13.45;100.00;100069.63;5047266;28;20048;-75
2022/10/08 02:45:14;;;;;;;22.65;20.02;;;;;;;13.51;100.00;100069.03;5045382;28;20021;-75
2022/10/08 02:47:43;;;;;;;26.33;20.42;;;;;;;13.52;100.00;100068.06;5047705;28;20083;-76
2022/10/08 02:50:17;;;;;;;25.25;20.50;;;;;;;13.49;100.00;100063.03;5045586;28;20045;-75
2022/10/08 02:52:44;;;;;;;23.92;20.88;;;;;;;13.44;100.00;100067.97;5047457;28;20033;-75
2022/10/08 02:55:35;;;;;;;27.55;21.00;;;;;;;13.52;100.00;100060.09;5048091;28;20052;-75
2022/10/08 02:58:08;;;;;;;24.65;20.80;;;;;;;13.52;100.00;100064.56;5047392;28;20478;-75
2022/10/08 03:00:40;;;;;;;31.20;21.85;;;;;;;13.56;100.00;100065.09;5047363;28;20056;-76
2022/10/08 03:03:13;;;;;;;24.00;20.20;;;;;;;13.60;100.00;100061.19;5056645;28;20064;-75
2022/10/08 03:05:41;;;;;;;24.98;19.95;;;;;;;13.47;100.00;100062.38;5050197;28;20048;-75
2022/10/08 03:08:08;;;;;;;25.05;20.02;;;;;;;13.45;100.00;100064.31;5046338;28;20033;-75
2022/10/08 03:10:38;;;;;;;27.60;21.05;;;;;;;13.55;100.00;100072.22;5047087;28;20059;-75
2022/10/08 03:13:03;;;;;;;22.63;20.23;;;;;;;13.51;100.00;100069.03;5048299;28;20041;-74
2022/10/08 03:15:33;;;;;;;24.85;20.48;;;;;;;13.26;100.00;100064.41;5045250;28;20034;-75
2022/10/08 03:18:06;;;;;;;24.35;20.40;;;;;;;13.30;100.00;100065.81;5044679;28;20037;-75
2022/10/08 03:20:32;;;;;;;27.23;20.50;;;;;;;13.30;100.00;100068.47;5046374;28;20475;-74
2022/10/08 03:23:00;;;;;;;26.55;21.38;;;;;;;13.28;100.00;100065.13;5046319;28;20104;-75
2022/10/08 03:25:25;;;;;;;25.85;20.13;;;;;;;13.25;100.00;100062.78;5045187;28;20135;-75
2022/10/08 03:27:51;;;;;;;22.50;20.10;;;;;;;13.24;100.00;100055.81;5046543;28;20532;-75
2022/10/08 03:30:16;;;;;;;25.67;19.25;;;;;;;13.20;100.00;100059.72;5044504;28;20037;-76
2022/10/08 03:32:42;;;;;;;21.27;18.98;;;;;;;13.14;100.00;100055.00;5047429;28;20029;-75
2022/10/08 03:35:07;;;;;;;22.45;19.25;;;;;;;13.13;100.00;100057.81;5040215;28;20029;-75
2022/10/08 03:37:33;;;;;;;25.80;19.55;;;;;;;12.99;100.00;100056.44;5044084;28;20060;-75
2022/10/08 03:39:58;;;;;;;26.52;19.88;;;;;;;12.80;100.00;100051.22;5045718;28;20032;-75
2022/10/08 03:42:24;;;;;;;24.73;20.80;;;;;;;12.68;100.00;100059.34;5043814;28;20033;-75
2022/10/08 03:44:49;;;;;;;24.52;20.27;;;;;;;12.80;100.00;100052.06;5045740;28;20033;-76
2022/10/08 03:47:15;;;;;;;20.73;18.52;;;;;;;12.84;100.00;100056.06;5041448;28;20045;-75
2022/10/08 03:49:40;;;;;;;22.35;19.77;;;;;;;12.85;100.00;100059.56;5046501;28;20075;-76
2022/10/08 03:52:06;;;;;;;22.42;19.33;;;;;;;12.73;100.00;100051.78;5042303;28;20029;-75
2022/10/08 03:54:34;;;;;;;24.45;19.80;;;;;;;12.55;100.00;100057.97;5042610;28;20055;-74
2022/10/08 03:56:59;;;;;;;25.63;19.45;;;;;;;12.49;100.00;100054.09;5046481;28;20444;-75
2022/10/08 03:59:25;;;;;;;23.75;19.98;;;;;;;12.55;100.00;100048.22;5042201;28;20052;-76
2022/10/08 04:01:50;;;;;;;28.23;19.85;;;;;;;12.56;100.00;100049.06;5045628;28;20057;-75
2022/10/08 04:04:15;;;;;;;25.85;20.60;;;;;;;12.47;100.00;100050.75;5042599;28;20084;-75
2022/10/08 04:06:41;;;;;;;22.88;19.70;;;;;;;12.48;100.00;100041.00;5045949;28;20512;-75
2022/10/08 04:09:08;;;;;;;25.02;19.92;;;;;;;12.45;100.00;100046.56;5044039;28;20106;-75
2022/10/08 04:11:34;;;;;;;23.23;18.77;;;;;;;12.44;100.00;100055.50;5043778;28;20041;-75
2022/10/08 04:13:59;;;;;;;22.67;20.05;;;;;;;12.35;100.00;100051.06;5047034;28;20097;-75
2022/10/08 04:16:25;;;;;;;24.20;19.35;;;;;;;12.45;100.00;100058.00;5044260;28;20099;-75
2022/10/08 04:18:50;;;;;;;26.15;20.33;;;;;;;12.44;100.00;100056.31;5045098;28;20040;-75
2022/10/08 04:21:18;;;;;;;22.40;19.15;;;;;;;12.44;100.00;100051.03;5041894;28;20485;-75
2022/10/08 04:23:44;;;;;;;22.40;19.85;;;;;;;12.50;100.00;100053.09;5046242;28;20025;-75
2022/10/08 04:26:12;;;;;;;22.80;20.00;;;;;;;12.50;100.00;100055.75;5043397;28;20513;-75
2022/10/08 04:28:39;;;;;;;23.58;18.90;;;;;;;12.56;100.00;100049.91;5044385;28;20063;-74
2022/10/08 04:31:16;;;;;;;27.23;20.75;;;;;;;12.64;100.00;100051.84;5043762;28;20087;-74
2022/10/08 04:33:45;;;;;;;27.38;22.25;;;;;;;12.64;100.00;100057.97;5041633;28;20186;-75
2022/10/08 04:36:16;;;;;;;28.20;21.83;;;;;;;12.21;100.00;100049.69;5045090;28;20040;-74
2022/10/08 04:38:43;;;;;;;26.40;22.27;;;;;;;12.04;100.00;100048.59;5040682;28;20052;-74
2022/10/08 04:41:12;;;;;;;26.70;21.45;;;;;;;12.10;100.00;100050.66;5045891;28;20167;-75
2022/10/08 04:43:40;;;;;;;29.58;21.00;;;;;;;12.21;100.00;100057.63;5041832;28;20072;-73
2022/10/08 04:46:07;;;;;;;26.55;22.58;;;;;;;12.34;100.00;100049.38;5057078;28;20025;-73
2022/10/08 04:48:33;;;;;;;26.48;21.27;;;;;;;12.38;100.00;100062.19;5043546;28;20041;-74
2022/10/08 04:51:01;;;;;;;26.45;20.33;;;;;;;12.46;100.00;100053.53;5044055;28;20103;-75
2022/10/08 04:53:27;;;;;;;27.77;20.15;;;;;;;12.50;100.00;100057.56;5043587;28;20469;-74
2022/10/08 04:55:54;;;;;;;24.15;19.30;;;;;;;12.46;100.00;100056.19;5046386;28;20091;-75
2022/10/08 04:58:21;;;;;;;22.35;18.75;;;;;;;12.53;100.00;100057.31;5042044;28;20481;-75
2022/10/08 05:00:46;;;;;;;22.20;18.25;;;;;;;12.48;100.00;100052.44;5042154;28;20051;-74
2022/10/08 05:03:12;;;;;;;25.35;19.27;;;;;;;12.37;100.00;100055.22;5044282;28;20037;-74
2022/10/08 05:05:42;;;;;;;20.88;18.30;;;;;;;12.29;100.00;100047.19;5045174;28;20037;-74
2022/10/08 05:08:07;;;;;;;23.00;19.17;;;;;;;12.31;100.00;100045.22;5041277;28;20018;-74
2022/10/08 05:10:33;;;;;;;21.23;18.17;;;;;;;12.30;100.00;100049.69;5045155;28;20286;-75
2022/10/08 05:12:59;;;;;;;21.77;17.67;;;;;;;12.30;100.00;100054.16;5045577;28;20028;-74
2022/10/08 05:15:24;;;;;;;21.85;18.20;;;;;;;12.23;100.00;100050.38;5044796;28;20153;-75
2022/10/08 05:17:50;;;;;;;26.52;19.08;;;;;;;12.22;100.00;100051.34;5041479;28;20065;-74
2022/10/08 05:20:15;;;;;;;22.60;18.17;;;;;;;12.26;100.00;100052.72;5044464;28;20147;-74
2022/10/08 05:22:40;;;;;;;21.30;18.17;;;;;;;12.32;100.00;100052.16;5045088;28;20035;-74
2022/10/08 05:25:06;;;;;;;25.40;19.13;;;;;;;12.23;100.00;100053.88;5041317;28;20075;-75
2022/10/08 05:27:32;;;;;;;25.17;19.50;;;;;;;12.21;100.00;100049.69;5044145;28;20033;-76
2022/10/08 05:29:57;;;;;;;25.55;18.20;;;;;;;11.95;100.00;100051.25;5043034;28;20041;-76
2022/10/08 05:32:22;;;;;;;21.23;17.92;;;;;;;11.90;100.00;100046.34;5045067;28;20029;-75
2022/10/08 05:34:48;;;;;;;20.90;18.08;;;;;;;12.03;100.00;100036.31;5041560;28;20393;-75
2022/10/08 05:37:14;;;;;;;21.40;19.20;;;;;;;12.04;100.00;100038.00;5040602;28;20474;-76
2022/10/08 05:39:40;;;;;;;29.73;22.83;;;;;;;11.89;100.00;100039.41;5045227;28;20033;-75
2022/10/08 05:42:06;;;;;;;32.15;24.17;;;;;;;11.85;100.00;100038.84;5041291;28;20079;-75
2022/10/08 05:44:32;;;;;;;29.27;23.70;;;;;;;11.95;100.00;100040.66;5045244;28;20548;-75
2022/10/08 05:46:57;;;;;;;28.15;22.52;;;;;;;12.06;100.00;100051.09;5044255;28;20112;-75
2022/10/08 05:49:23;;;;;;;29.67;23.90;;;;;;;12.13;100.00;100058.34;5046148;28;20033;-75
2022/10/08 05:51:49;;;;;;;32.53;24.55;;;;;;;12.26;100.00;100061.50;5045106;28;20048;-75
2022/10/08 05:54:16;;;;;;;29.95;23.98;;;;;;;12.34;100.00;100059.97;5044681;28;20033;-76
2022/10/08 05:56:42;;;;;;;35.65;27.17;;;;;;;12.38;100.00;100056.91;5049024;28;20037;-75
2022/10/08 05:59:16;;;;;;;35.80;25.73;;;;;;;12.34;100.00;100076.69;5048885;28;20025;-76
2022/10/08 06:01:42;;;;;;;34.97;26.55;;;;;;;12.23;100.00;100068.91;5047824;28;20030;-75
2022/10/08 06:04:09;;;;;;;37.33;26.77;;;;;;;12.15;100.00;100072.25;5046399;28;20033;-75
2022/10/08 06:06:36;;;;;;;32.50;25.50;;;;;;;12.12;100.00;100069.06;5049512;28;20124;-76
2022/10/08 06:09:03;;;;;;;29.35;23.73;;;;;;;12.15;100.00;100071.41;5047058;28;20068;-76
2022/10/08 06:11:30;;;;;;;33.13;24.10;;;;;;;12.26;100.00;100073.91;5045535;28;20041;-75
2022/10/08 06:13:58;;;;;;;37.72;25.90;;;;;;;12.33;100.00;100069.72;5052730;28;20060;-75
2022/10/08 06:16:24;;;;;;;29.67;23.65;;;;;;;12.31;100.00;100072.50;5044164;28;20044;-75
2022/10/08 06:18:50;;;;;;;29.90;22.58;;;;;;;12.39;100.00;100079.75;5063050;28;20029;-76
2022/10/08 06:21:22;;;;;;;29.73;22.98;;;;;;;12.50;100.00;100076.09;5046105;28;20095;-76
2022/10/08 06:23:51;;;;;;;33.10;24.45;;;;;;;12.24;100.00;100081.16;5045055;28;20111;-74
2022/10/08 06:26:20;;;;;;;29.92;23.23;;;;;;;12.19;100.00;100076.28;5041579;28;20428;-74
2022/10/08 06:28:47;;;;;;;26.83;21.35;;;;;;;12.22;100.00;100083.09;5043330;28;20017;-75
2022/10/08 06:31:13;;;;;;;26.25;20.63;;;;;;;12.19;100.00;100078.09;5048418;28;20059;-76
2022/10/08 06:33:38;;;;;;;27.15;22.45;;;;;;;12.24;100.00;100081.16;5044356;28;20501;-75
2022/10/08 06:36:07;;;;;;;28.83;22.23;;;;;;;12.37;100.00;100081.69;5042734;28;20038;-76
2022/10/08 06:38:33;;;;;;;28.92;22.00;;;;;;;12.42;100.00;100084.78;5045839;28;20144;-76
2022/10/08 06:40:59;;;;;;;28.02;22.17;;;;;;;12.54;100.00;100081.00;5050772;28;20481;-76
2022/10/08 06:43:25;;;;;;;27.33;21.55;;;;;;;12.50;100.00;100079.59;5042605;28;20489;-75
2022/10/08 06:45:52;;;;;;;28.65;22.52;;;;;;;12.58;100.00;100079.72;5046636;28;20044;-75
2022/10/08 06:48:18;;;;;;;29.50;22.52;;;;;;;12.75;100.00;100095.84;5047892;28;20032;-75
2022/10/08 06:50:45;;;;;;;29.40;24.15;;;;;;;12.92;100.00;100097.72;5043846;28;20032;-76
2022/10/08 06:53:10;;;;;;;43.58;27.02;;;;;;;13.01;100.00;100099.53;5048025;28;20033;-75
2022/10/08 06:55:37;;;;;;;37.63;28.00;;;;;;;13.07;100.00;100096.31;5048708;28;20126;-77
2022/10/08 06:58:05;;;;;;;34.33;26.95;;;;;;;13.04;100.00;100094.75;5044303;28;20099;-76
2022/10/08 07:00:31;;;;;;;38.85;26.75;;;;;;;13.21;100.00;100093.19;5050646;28;20044;-76
2022/10/08 07:02:57;;;;;;;36.15;26.52;;;;;;;13.29;100.00;100095.13;5043848;28;20334;-76
2022/10/08 07:05:23;;;;;;;29.65;25.10;;;;;;;13.36;100.00;100094.38;5045833;28;20428;-75
2022/10/08 07:07:49;;;;;;;33.28;25.38;;;;;;;13.41;100.00;100084.16;5046390;28;20025;-75
2022/10/08 07:10:14;;;;;;;31.88;25.10;;;;;;;13.48;100.00;100095.84;5043192;28;20485;-76
2022/10/08 07:12:39;;;;;;;33.47;24.20;;;;;;;13.46;100.00;100103.13;5044761;28;20092;-76
2022/10/08 07:15:05;;;;;;;33.13;24.75;;;;;;;13.62;100.00;100099.81;5048695;28;20120;-76
2022/10/08 07:17:31;;;;;;;29.50;23.08;;;;;;;13.70;100.00;100099.06;5044311;28;20412;-76
2022/10/08 07:19:57;;;;;;;34.22;26.63;;;;;;;13.79;100.00;100103.47;5031497;28;20033;-76
2022/10/08 07:22:23;;;;;;;34.95;26.90;;;;;;;13.82;100.00;100097.88;5046958;28;20036;-76
2022/10/08 07:24:49;;;;;;;31.15;26.55;;;;;;;13.94;100.00;100101.97;5043671;28;20030;-75
2022/10/08 07:27:15;;;;;;;40.10;29.27;;;;;;;13.98;100.00;100102.50;5043101;28;20422;-76
2022/10/08 07:29:40;;;;;;;42.28;31.60;;;;;;;13.98;100.00;100111.28;5047246;28;20025;-76
2022/10/08 07:32:06;;;;;;;41.95;30.77;;;;;;;14.00;100.00;100111.16;5043216;28;20030;-76
2022/10/08 07:34:31;;;;;;;45.03;31.55;;;;;;;14.01;100.00;100108.34;5045271;28;20033;-75
2022/10/08 07:36:57;;;;;;;43.08;32.85;;;;;;;14.06;100.00;100111.38;5043721;28;20122;-75
2022/10/08 07:39:22;;;;;;;44.20;32.75;;;;;;;14.07;100.00;100106.91;5046730;28;20338;-76
2022/10/08 07:41:48;;;;;;;44.95;33.33;;;;;;;13.79;100.00;100103.47;5043104;28;20056;-75
2022/10/08 07:44:15;;;;;;;47.13;34.50;;;;;;;13.96;100.00;100115.91;5058617;28;20147;-75
2022/10/08 07:46:46;;;;;;;51.70;36.70;;;;;;;13.89;100.00;100112.22;5043953;28;20082;-76
2022/10/08 07:49:12;;;;;;;49.85;36.13;;;;;;;13.93;100.00;100116.22;5046695;28;20039;-76
2022/10/08 07:51:38;;;;;;;45.65;34.67;;;;;;;14.16;100.00;100106.81;5065708;28;20044;-76
2022/10/08 07:54:07;;;;;;;45.00;32.90;;;;;;;14.33;100.00;100108.63;5046103;28;20029;-76
2022/10/08 07:56:34;;;;;;;42.15;31.38;;;;;;;14.31;100.00;100107.94;5047041;28;20727;-76
2022/10/08 07:59:00;;;;;;;45.47;34.53;;;;;;;14.44;100.00;100114.72;5048392;28;20440;-75
2022/10/08 08:01:28;;;;;;;53.30;34.55;;;;;;;14.49;100.00;100117.75;5045398;28;20028;-75
2022/10/08 08:03:55;;;;;;;48.45;34.80;;;;;;;14.58;100.00;100106.19;5046944;28;20028;-76
2022/10/08 08:06:22;;;;;;;51.55;34.97;;;;;;;14.73;100.00;100110.78;5047643;28;20580;-75
2022/10/08 08:08:48;;;;;;;52.20;36.45;;;;;;;14.82;100.00;100110.84;5046414;28;20048;-76
2022/10/08 08:11:16;;;;;;;50.95;37.65;;;;;;;14.99;100.00;100110.78;5043411;28;20124;-75
2022/10/08 08:13:42;;;;;;;48.53;36.63;;;;;;;15.13;100.00;100112.03;5046342;28;20165;-75
2022/10/08 08:16:13;;;;;;;49.42;36.50;;;;;;;15.27;100.00;100107.94;5048003;28;20029;-77
2022/10/08 08:18:41;;;;;;;51.97;38.97;;;;;;;15.37;100.00;100113.97;5044824;28;20032;-76
2022/10/08 08:21:10;;;;;;;54.65;37.55;;;;;;;15.45;100.00;100111.34;5043483;28;20039;-75
2022/10/08 08:23:40;;;;;;;54.25;38.00;;;;;;;15.57;100.00;100120.72;5045074;28;20045;-76
2022/10/08 08:26:08;;;;;;;62.53;40.97;;;;;;;15.66;100.00;100109.13;5047233;28;20147;-75
2022/10/08 08:28:34;;;;;;;58.33;39.80;;;;;;;15.78;100.00;100109.66;5039794;28;20033;-76
2022/10/08 08:31:13;;;;;;;58.25;40.33;;;;;;;15.85;100.00;100108.81;5044058;28;20406;-76
2022/10/08 08:33:39;;;;;;;55.97;39.47;;;;;;;15.83;100.00;100110.84;5041906;28;20048;-76
2022/10/08 08:36:05;;;;;;;58.70;39.75;;;;;;;15.96;100.00;100111.16;5045250;28;20032;-76
2022/10/08 08:38:34;;;;;;;61.25;40.53;;;;;;;16.07;100.00;100112.72;5044950;28;20040;-76
2022/10/08 08:41:20;;;;;;;56.53;39.03;;;;;;;16.18;100.00;100104.41;5045051;28;20080;-75
2022/10/08 08:43:46;;;;;;;59.60;40.63;;;;;;;16.19;100.00;100107.91;5043149;28;20032;-76
2022/10/08 08:46:18;;;;;;;57.03;40.13;;;;;;;16.29;100.00;100116.56;5047926;28;20044;-77
2022/10/08 08:48:44;;;;;;;57.47;40.38;;;;;;;16.39;100.00;100119.88;5043546;28;20389;-75
2022/10/08 08:51:10;;;;;;;57.75;39.42;;;;;;;16.47;100.00;100119.88;5046196;28;20045;-75
2022/10/08 08:53:36;;;;;;;60.45;40.50;;;;;;;16.49;100.00;100120.56;5044511;28;20047;-77
2022/10/08 08:56:05;;;;;;;57.22;39.17;;;;;;;16.56;100.00;100124.19;5041330;28;20042;-76
2022/10/08 08:58:48;;;;;;;58.80;41.72;;;;;;;16.63;100.00;100119.91;5048359;28;20738;-77
2022/10/08 09:01:29;;;;;;;59.63;41.17;;;;;;;16.75;100.00;100117.72;5044286;28;20029;-78
2022/10/08 09:04:17;;;;;;;56.30;39.80;;;;;;;16.85;100.00;100106.91;5057470;28;20409;-76
2022/10/08 09:06:44;;;;;;;59.40;42.92;;;;;;;16.93;100.00;100110.38;5046602;28;20048;-75
2022/10/08 09:09:23;;;;;;;53.60;38.65;;;;;;;17.01;100.00;100101.53;5060294;28;20033;-76
2022/10/08 09:11:48;;;;;;;59.42;40.33;;;;;;;17.05;100.00;100100.16;5060302;28;20036;-75
2022/10/08 09:14:31;;;;;;;57.15;41.40;;;;;;;17.07;100.00;100095.50;5062489;28;20033;-75
2022/10/08 09:17:00;;;;;;;58.30;41.33;;;;;;;17.13;100.00;100100.16;5057779;28;20072;-75
2022/10/08 09:19:26;;;;;;;58.17;40.75;;;;;;;17.23;100.00;100106.13;5049323;28;20047;-73
2022/10/08 09:21:51;;;;;;;58.65;41.08;;;;;;;17.30;100.00;100096.44;5046034;28;20036;-76
2022/10/08 09:24:17;;;;;;;65.82;42.92;;;;;;;17.39;100.00;100111.38;5058513;28;20044;-76
2022/10/08 09:26:43;;;;;;;63.03;42.22;;;;;;;17.48;100.00;100110.34;5048389;28;20021;-76
2022/10/08 09:29:30;;;;;;;55.25;39.75;;;;;;;17.51;100.00;100109.16;5043271;28;20025;-75
2022/10/08 09:31:56;;;;;;;57.28;42.50;;;;;;;17.59;100.00;100112.63;5049540;28;20051;-74
2022/10/08 09:34:22;;;;;;;55.50;40.65;;;;;;;17.66;100.00;100112.81;5048271;28;20132;-75
2022/10/08 09:36:53;;;;;;;58.70;41.17;;;;;;;17.74;100.00;100109.25;5044188;28;20033;-75
2022/10/08 09:39:22;;;;;;;58.38;39.92;;;;;;;17.81;100.00;100110.22;5044252;28;20037;-75
2022/10/08 09:42:06;;;;;;;58.10;39.85;;;;;;;17.87;100.00;100114.84;5044220;28;20418;-74
2022/10/08 09:44:42;;;;;;;58.88;39.42;;;;;;;17.93;100.00;100108.81;5046320;28;20473;-74
2022/10/08 09:47:12;;;;;;;60.90;40.58;;;;;;;18.00;100.00;100107.09;5043460;28;20047;-75
2022/10/08 09:49:38;;;;;;;56.70;39.45;;;;;;;18.10;100.00;100104.19;5047657;28;20037;-75
2022/10/08 09:52:25;;;;;;;55.50;39.63;;;;;;;18.17;100.00;100099.78;5044159;28;20029;-74
2022/10/08 09:54:57;;;;;;;55.33;39.17;;;;;;;18.22;100.00;100098.25;5045828;28;20048;-75
2022/10/08 09:57:23;;;;;;;55.90;38.60;;;;;;;18.30;100.00;100098.19;5043771;28;20088;-75
2022/10/08 09:59:53;;;;;;;53.55;38.03;;;;;;;18.40;100.00;100100.59;5044797;28;20116;-75
2022/10/08 10:02:39;;;;;;;;;;;;;;;18.45;100.00;100098.22;5043152;28;20097;-75
2022/10/08 10:05:16;;;;;;;56.65;37.40;;;;;;;18.52;100.00;100093.81;5044927;28;20332;-75
2022/10/08 10:07:44;;;;;;;49.72;37.85;;;;;;;18.64;100.00;100091.56;5041315;28;20493;-74
2022/10/08 10:10:27;;;;;;;50.53;36.90;;;;;;;18.76;100.00;100082.09;5044672;28;20044;-75
2022/10/08 10:13:24;;;;;;;49.85;35.28;;;;;;;18.94;100.00;100082.59;5042779;28;20033;-75
2022/10/08 10:15:56;;;;;;;49.42;36.80;;;;;;;18.99;100.00;100085.53;5047652;28;20045;-75
2022/10/08 10:18:29;;;;;;;53.25;38.53;;;;;;;19.07;100.00;100081.94;5041972;28;20032;-74
2022/10/08 10:21:00;;;;;;;50.05;35.95;;;;;;;19.19;100.00;100085.81;5046190;28;20033;-75
2022/10/08 10:23:53;;;;;;;53.30;36.85;;;;;;;19.30;100.00;100081.84;5041382;28;20836;-74
2022/10/08 10:26:26;;;;;;;54.60;37.92;;;;;;;19.42;100.00;100077.66;5041150;28;20064;-75
2022/10/08 10:28:56;;;;;;;54.70;37.85;;;;;;;19.55;100.00;100076.03;5041710;28;20487;-74
2022/10/08 10:31:22;;;;;;;50.72;37.40;;;;;;;19.61;100.00;100069.88;5045506;28;20037;-75
2022/10/08 10:33:59;;;;;;;49.92;36.65;;;;;;;19.74;100.00;100069.22;5047000;28;20041;-74
2022/10/08 10:36:30;;;;;;;48.65;37.95;;;;;;;19.79;100.00;100061.44;5047543;28;20052;-74
2022/10/08 10:39:37;;;;;;;51.10;37.72;;;;;;;19.91;100.00;100059.13;5046460;28;20136;-74
2022/10/08 10:42:15;;;;;;;53.35;37.65;;;;;;;20.03;100.00;100053.03;5047565;28;20033;-76
2022/10/08 10:44:52;;;;;;;50.85;37.58;;;;;;;20.09;100.00;100059.47;5050679;28;20036;-74
2022/10/08 10:47:22;;;;;;;47.95;37.05;;;;;;;20.20;100.00;100050.13;5044705;28;20400;-74
2022/10/08 10:49:49;;;;;;;49.33;37.35;;;;;;;20.34;100.00;100049.22;5047168;28;20029;-78
2022/10/08 10:52:36;;;;;;;51.85;35.80;;;;;;;20.47;100.00;100043.97;5043366;28;20426;-77
2022/10/08 10:55:26;;;;;;;49.83;35.65;;;;;;;20.64;100.00;100033.78;5047813;28;20036;-77
2022/10/08 10:58:01;;;;;;;46.78;35.22;;;;;;;20.75;100.00;100035.91;5045940;28;20039;-77
2022/10/08 11:00:58;;;;;;;48.45;35.22;;;;;;;20.79;100.00;100032.63;5046086;28;20118;-76
2022/10/08 11:04:00;;;;;;;48.88;34.90;;;;;;;20.87;100.00;100030.81;5045225;28;20040;-75
2022/10/08 11:06:38;;;;;;;49.60;35.17;;;;;;;20.92;100.00;100028.38;5044118;28;20369;-74
2022/10/08 11:09:19;;;;;;;49.15;34.50;;;;;;;20.98;100.00;100022.22;5043675;28;20030;-75
2022/10/08 11:12:00;;;;;;;45.22;34.47;;;;;;;21.07;100.00;100019.19;5044203;28;20334;-75
2022/10/08 11:14:50;;;;;;;47.85;34.25;;;;;;;21.17;100.00;100014.28;5031393;28;20048;-75
2022/10/08 11:17:31;;;;;;;41.88;33.45;;;;;;;21.20;99.41;100010.41;5042764;28;20055;-75
2022/10/08 11:20:09;;;;;;;48.72;34.53;;;;;;;21.24;97.75;100007.09;5073342;28;20059;-75